New Hope, Indiana
Current Conditions -  °F | °C
As of 6:53 PM on Wednesday 28 Jan 2015 (Local Time) from KBMG Reporting Station
Clear Clear  
Wind Chill: 27°   Ceiling: Unl
Heat Index: 34°   Visibility: 10mi
Dew Point: 16°   Wind: 9mph
Humidity: 48%   Direction: 140°SE
Pressure: 30.15"   Gusts: NA
Location:  39.3008°N, 86.8112°W
Report Text: KBMG 282353Z 14008KT 10SM CLR 01/M09 A3015 RMK AO2 SLP218 T00111089 10033 20006 56014
Loading
Personal Weather Stations






























Interactive Weather Map New forecast layout! Learn more

10-Day Weather Forecast

Advertisements
Track Severe Weather on mobile